NY Terminal Aviation Weather Discussion (AFD) - Prepared: 1111 AM EDT MON MAY 25 2015
HIGH PRES REMAINS EAST OF THE AREA FOR THE NEXT SEVERAL DAYS.

VFR THROUGH THE TAF PERIOD.

S-SW WINDS INCREASE INTO THIS AFTERNOON WITH GUSTS INCREASING TO 20-30KT
BY MID-LATE AFTERNOON. WINDS DIMINISH THIS EVENING.

5 Day General Aviation Outlook:

.OUTLOOK FOR 12Z TUESDAY THROUGH FRIDAY...
.TUESDAY-FRIDAY...MVFR OR LOWER POSSIBLE IN STRATUS AND/OR FOG
LATE AT NIGHT/MORNING...OTHERWISE VFR. LOW CHANCE SHRA/TSTM EACH
AFTERNOON...BUT MOSTLY NW OF CITY TERMINALS TUE AND WED. COASTAL
SEA BREEZES LIKELY EACH AFTERNOON...WITH S-SW WINDS G15-20KT
POSSIBLE.


NY Metro Terminal Aviation Weather Summary: (Explanation of Color Coding)
NOTE: All Wind Directions are TRUE (add 13 degrees for magnetic directions). Tail and Crosswind Calculations do account for the magnetic deviation of runways.

Click on the Airport Below for Specific Information at that Terminal

TAF Overview JFK TAF LGA TAF EWR TAF TEB TAF HPN TAF ISP TAF

Jump to AirSpace Impacts Section Condensed "lite" version of SPA page
**************************************************************************************
KJFK Terminal Weather: (Wind Directions Are True, Except Where Noted, ADD 13 degrees for Magnetic)

5MIN KJFK 251525Z 17006KT 10SM CLR 23/14 A3027 -300 57 
     600 180/06 RMK AO2 $
5MIN KJFK 251520Z 17006KT 10SM CLR 23/14 A3027 -300 57 
     600 180/06 RMK AO2 $
********************************************
****        MAGNETIC DIRECTIONS         ****
********************************************
KJFK 05/25/2015 15:29:38 GMT 150 06 KT
KJFK 05/25/2015 15:27:38 GMT 160 07 KT
KJFK 05/25/2015 15:25:38 GMT 160 07 KT
KJFK 05/25/2015 15:23:38 GMT 160 07 KT
KJFK 05/25/2015 15:21:38 GMT 160 06 KT
KJFK 05/25/2015 15:19:38 GMT 170 06 KT
KJFK 05/25/2015 15:17:38 GMT 170 07 KT
KJFK 05/25/2015 15:15:38 GMT 170 05 KT
KJFK 05/25/2015 15:13:38 GMT 160 06 KT
KJFK 05/25/2015 15:11:38 GMT 170 05 KT
SAUS70 KJFK 251500 RRT
METAR KJFK 251451Z 18006KT 10SM FEW150 SCT250 23/13 A3028 RMK AO2 SLP252
     T02280133 58004 $
FTNA35 KJFK 251448 RRC
KJFK 251439Z 2515/2618 20007KT P6SM FEW150 SCT200
     FM251600 19011KT P6SM SCT200
     FM251800 19018KT P6SM FEW050 SCT250
     FM252000 18023G30KT P6SM FEW050 SCT250
     FM260300 20015KT P6SM BKN250
     FM260600 20012KT P6SM BKN250
     FM261600 20014G20KT P6SM BKN250
KJFK FCSTER COMMENTS: WIND DIRECTION COULD PREVAIL 170-190 TRUE
BEFORE 16Z. FREQUENT GUSTS COULD BE ONLY 27-29KT THIS AFTN/EVE.
WINDS AT 750-1000 FT AGL COULD BE NEAR 40KT FROM APPROX 22Z-04Z.

jfk

JFK Hourly Forecast Temperature (C)

JFK Hourly TMPS
**************************************************************************************
KLGA Terminal Weather: (Wind Directions Are True, Except Where Noted, ADD 13 degrees for Magnetic)

5MIN KLGA 251525Z 24004KT 10SM CLR 27/13 A3024 -260 43 
     1100 250/04 RMK AO2
5MIN KLGA 251520Z VRB05KT 10SM CLR 26/13 A3024 -260 44 
     1000 VRB/05 RMK AO2
********************************************
****        MAGNETIC DIRECTIONS         ****
********************************************
KLGA 05/25/2015 15:29:56 GMT 200 07 KT
KLGA 05/25/2015 15:27:56 GMT 240 04 KT
KLGA 05/25/2015 15:25:56 GMT 230 07 KT
KLGA 05/25/2015 15:23:56 GMT 250 07 KT
KLGA 05/25/2015 15:22:06 GMT 250 06 KT
KLGA 05/25/2015 15:19:56 GMT 260 06 KT
KLGA 05/25/2015 15:17:55 GMT 240 06 KT
KLGA 05/25/2015 15:16:06 GMT 240 08 KT
KLGA 05/25/2015 15:13:56 GMT 240 08 KT
KLGA 05/25/2015 15:11:56 GMT 240 09 KT
SAUS70 KLGA 251500 RRA
METAR KLGA 251451Z 24008KT 10SM FEW150 SCT250 25/13 A3025 RMK AO2 SLP243
     T02500128 58007
FTUS80 KLGA 251454 CCA
KLGA 251450Z 2515/2612 21008KT P6SM FEW150 SCT200
     FM251700 18014G22KT P6SM SCT200
     FM252000 19019G27KT P6SM FEW050 SCT250
     FM260200 21013KT P6SM BKN250
KLGA FCSTER COMMENTS: SEA BREEZE SHIFT TO S COULD BE OFF BY AN
HOUR. A GUST OR TWO COULD REACH 30KT FROM 20-23Z...BUT NOT
PROBABLE.

lga


**************************************************************************************

KEWR Terminal Weather: (Wind Directions Are True, Except Where Noted, ADD 13 degrees for Magnetic)

5MIN KEWR 251525Z 22008KT 10SM CLR 28/14 A3024 -260 40 
     1200 230/08 RMK AO2 $
5MIN KEWR 251520Z 24008KT 10SM CLR 28/14 A3024 -270 42 
     1200 250/08 RMK AO2 $
********************************************
****        MAGNETIC DIRECTIONS         ****
********************************************
KEWR 05/25/2015 15:29:41 GMT 240 08 KT
KEWR 05/25/2015 15:27:41 GMT 250 08 KT
KEWR 05/25/2015 15:25:41 GMT 240 04 KT
KEWR 05/25/2015 15:23:41 GMT 250 05 KT
KEWR 05/25/2015 15:21:41 GMT 250 07 KT
KEWR 05/25/2015 15:19:41 GMT 220 04 KT
KEWR 05/25/2015 15:17:41 GMT 250 07 KT
KEWR 05/25/2015 15:16:02 GMT 270 05 KT
KEWR 05/25/2015 15:13:41 GMT 260 07 KT
KEWR 05/25/2015 15:11:41 GMT 260 09 KT
SAUS70 KEWR 251500
METAR KEWR 251451Z 25006KT 10SM FEW080 SCT140 SCT250 27/14 A3025 RMK AO2
     SLP241 T02670139 58009 $
FTUS31 KEWR 251442 AAA
KEWR 251439Z 2515/2618 22011G19KT P6SM FEW150 SCT200
     FM251900 21016G24KT P6SM FEW050 SCT250
     FM260200 22010KT P6SM BKN250
KEWR FCSTER COMMENTS: FREQUENT GUSTS MIGHT NOT BEGIN UNTIL 16-17Z.
FREQUENT GUSTS MIGHT BE ONLY 20-23KT THIS AFTN/EVE. CHANCE THAT
WINDS SHIFT 180-200 TRUE NEAR 01-02Z WITH SEA BREEZE.

ewr
Afternoon EWR Haze Potential Forecast: green
THE AFTERNOON KEWR HAZE POTENTIAL FORECAST IS GREEN...WHICH IMPLIES 
SLANT RANGE VISIBILITY 7SM OR GREATER OUTSIDE OF CLOUD.


******************************************************************************

KTEB Terminal Weather:
SAUS80 KTEB 251500
METAR KTEB 251451Z 22006KT 10SM CLR 25/14 A3023 RMK AO2 SLP238 T02500139
     58009
FTUS31 KTEB 251442 AAA
KTEB 251439Z 2515/2612 21009G16KT P6SM FEW150 SCT200
     FM251900 21014G21KT P6SM FEW050 SCT250
     FM260400 22008KT P6SM BKN250
KTEB FCSTER COMMENTS: FREQUENT GUSTS MIGHT NOT BEGIN UNTIL AROUND
17Z. FREQUENT GUSTS MIGHT BE ONLY 17-20KT THIS AFTN/EVE. CHANCE
THAT GUSTS ARE ONLY OCCASIONAL. CHANCE THAT WINDS SHIFT 170-190
TRUE NEAR 20-21Z WITH SEA BREEZE.

teb

 


**************************************************************************************

KHPN Terminal Weather:
SAUS70 KHPN 251500 RRD
METAR KHPN 251456Z 19004KT 10SM CLR 23/14 A3025 RMK AO2 SLP241 T02330144
     58005
FTUS80 KHPN 251442 AAA
KHPN 251439Z 2515/2612 20008KT P6SM FEW150 SCT200
     FM251800 19013G20KT P6SM FEW050 SCT250
     FM260100 20010KT P6SM BKN250
     FM260500 20005KT P6SM BKN250 AMD NOT SKED
KHPN FCSTER COMMENTS: WIND SHIFT TO S WITH SEA BREEZE TIMING COULD
BE OFF BY AN HOUR. FREQUENT GUSTS MIGHT BE ONLY 16-19KT.

HPN


******************************************************************************

KISP Terminal Weather:
SAUS70 KISP 251500 RRD
METAR KISP 251456Z 17007KT 10SM SCT140 SCT180 SCT250 21/14 A3026 RMK AO2
     SLP248 T02110144 58004
FTUS80 KISP 251442 AAA
KISP 251439Z 2515/2612 20012KT P6SM FEW150 SCT200
     FM251800 21017G25KT P6SM FEW050 SCT250
     FM260000 21013G20KT P6SM BKN250
     FM260200 21010KT P6SM BKN250
KISP FCSTER COMMENTS: GUSTS MIGHT BE ONLY OCCASIONAL THIS
AFTN/EVE. A GUST OR TWO UP TO 30 KT POSSIBLE FROM APPROX 21-00Z.
WINDS AT 750-1000 FT AGL COULD BE NEAR 40KT FROM APPROX 22Z-04Z.

ISP

 


ZNY SWAP Season Information

(ZNY SWAP STATEMENT) (Click for PDF File) (ZNY BRIEFING) (Click for PDF File)

*******************************************************
***        NY AIR ROUTE TRAFFIC CONTROL CENTER      ***
***                DAILY SWAP STATEMENT             ***
*******************************************************
- KNYC 251403
WRKSWP
MONDAY,  MAY 25, 2015
SWAP IS NOT EXPECTED.
WDLY SCT TS WILL DVLP IN ZOB AISRPACE AFTER 18Z...WITH BRIEF IMPACTS 
PSBL.
ADDT'L INFO: AZEZU-PAEPR-HANRI(L453-M201):  NO IMPACTS.
DITCH:  NO IMPACTS. 
EAST GATES:  NO IMPACTS.
TOMORROW MORNINGS SWAP OUTLOOK:  SWAP IS NOT EXPECTED.
$$
MMD

N90 AirSpace Impacts

N90 ZNY Gate TSTM Forecast    SWAP Day One Forecast

SWAP Day One Forecast    SWAP Day Two Outlook

National Collaborative Convective Forecast Product (CCFP) Forecasts (Mar-Oct)

CAWS - Collaborative Aviation Weather Statement


Vertical Wind Profile
Untitled Document